Time;durP1;ratioP1;P1;durP2;ratioP2;P2;SDS_P1;SDS_P2;PMS_P1;PMS_P2;Temp;Humidity;BMP_temperature;BMP_pressure;BME280_temperature;BME280_humidity;BME280_pressure;Samples;Min_cycle;Max_cycle;Signal;HPM_P1;HPM_P2
2023/11/30 00:00:24;;;;;;;;;;;;;;;;;;4146916;28;20007;-87
2023/11/30 00:02:25;;;;;;;;;;;;;;;;;;4182500;28;20587;-88
2023/11/30 00:04:27;;;;;;;;;;;;;;;;;;4172550;28;19979;-88
2023/11/30 00:06:28;;;;;;;;;;;;;;;;;;4167409;28;19921;-88
2023/11/30 00:08:30;;;;;;;;;;;;;;;;;;4172242;28;19927;-88
2023/11/30 00:10:31;;;;;;;;;;;;;;;;;;4183589;28;19924;-88
2023/11/30 00:12:33;;;;;;;;;;;;;;;;;;4162965;28;19925;-88
2023/11/30 00:14:34;;;;;;;;;;;;;;;;;;4165811;28;20293;-88
2023/11/30 00:16:36;;;;;;;;;;;;;;;;;;4167052;28;19924;-88
2023/11/30 00:18:37;;;;;;;;;;;;;;;;;;4167226;28;19928;-88
2023/11/30 00:20:41;;;;;;;;;;;;;;;;;;4167143;28;19927;-88
2023/11/30 00:22:43;;;;;;;;;;;;;;;;;;4167271;28;20357;-88
2023/11/30 00:24:44;;;;;;;;;;;;;;;;;;4167520;28;20435;-84
2023/11/30 00:26:46;;;;;;;;;;;;;;;;;;4148705;28;19932;-84
2023/11/30 00:28:48;;;;;;;;;;;;;;;;;;4149384;28;19925;-84
2023/11/30 00:30:49;;;;;;;;;;;;;;;;;;4148306;28;19971;-84
2023/11/30 00:32:51;;;;;;;;;;;;;;;;;;4166007;28;20280;-84
2023/11/30 00:34:52;;;;;;;;;;;;;;;;;;4166499;28;19964;-84
2023/11/30 00:36:54;;;;;;;;;;;;;;;;;;4166104;28;20023;-85
2023/11/30 00:38:55;;;;;;;;;;;;;;;;;;4166689;28;19932;-84
2023/11/30 00:40:57;;;;;;;;;;;;;;;;;;4149227;28;19925;-84
2023/11/30 00:42:58;;;;;;;;;;;;;;;;;;4166591;28;19921;-83
2023/11/30 00:45:00;;;;;;;;;;;;;;;;;;4148967;28;19922;-85
2023/11/30 00:47:01;;;;;;;;;;;;;;;;;;4148998;28;19925;-85
2023/11/30 00:49:03;;;;;;;;;;;;;;;;;;4166674;28;19925;-85
2023/11/30 00:51:04;;;;;;;;;;;;;;;;;;4148909;28;19921;-84
2023/11/30 00:53:06;;;;;;;;;;;;;;;;;;4166901;28;20412;-84
2023/11/30 00:55:07;;;;;;;;;;;;;;;;;;4148813;28;19921;-84
2023/11/30 00:57:09;;;;;;;;;;;;;;;;;;4132632;28;20353;-83
2023/11/30 00:59:10;;;;;;;;;;;;;;;;;;4148897;28;19929;-83
2023/11/30 01:01:12;;;;;;;;;;;;;;;;;;4149877;28;19921;-84
2023/11/30 01:03:13;;;;;;;;;;;;;;;;;;4150614;28;19929;-84
2023/11/30 01:05:15;;;;;;;;;;;;;;;;;;4166244;28;19925;-84
2023/11/30 01:07:16;;;;;;;;;;;;;;;;;;4166553;28;19933;-84
2023/11/30 01:09:18;;;;;;;;;;;;;;;;;;4170608;28;19928;-85
2023/11/30 01:11:19;;;;;;;;;;;;;;;;;;4148508;28;19925;-84
2023/11/30 01:13:21;;;;;;;;;;;;;;;;;;4132618;28;19988;-84
2023/11/30 01:15:22;;;;;;;;;;;;;;;;;;4148774;28;20317;-83
2023/11/30 01:17:24;;;;;;;;;;;;;;;;;;4166383;28;19936;-84
2023/11/30 01:19:25;;;;;;;;;;;;;;;;;;4166324;28;19921;-84
2023/11/30 01:21:27;;;;;;;;;;;;;;;;;;4166059;28;19921;-84
2023/11/30 01:23:28;;;;;;;;;;;;;;;;;;4166113;28;19932;-84
2023/11/30 01:25:30;;;;;;;;;;;;;;;;;;4166185;28;19925;-84
2023/11/30 01:27:32;;;;;;;;;;;;;;;;;;4165904;28;19931;-84
2023/11/30 01:29:33;;;;;;;;;;;;;;;;;;4165833;28;19936;-85
2023/11/30 01:31:35;;;;;;;;;;;;;;;;;;4148256;28;19921;-84
2023/11/30 01:33:36;;;;;;;;;;;;;;;;;;4165993;28;19931;-84
2023/11/30 01:35:38;;;;;;;;;;;;;;;;;;4148154;28;19927;-88
2023/11/30 01:37:39;;;;;;;;;;;;;;;;;;4165844;28;19983;-88
2023/11/30 01:39:41;;;;;;;;;;;;;;;;;;4165902;28;19975;-88
2023/11/30 01:41:42;;;;;;;;;;;;;;;;;;4165710;28;19925;-88
2023/11/30 01:43:44;;;;;;;;;;;;;;;;;;4148406;28;19925;-88
2023/11/30 01:45:45;;;;;;;;;;;;;;;;;;4165894;28;20384;-88
2023/11/30 01:47:47;;;;;;;;;;;;;;;;;;4148122;28;19948;-88
2023/11/30 01:49:49;;;;;;;;;;;;;;;;;;4165723;28;19960;-88
2023/11/30 01:51:50;;;;;;;;;;;;;;;;;;4155229;28;19921;-88
2023/11/30 01:53:51;;;;;;;;;;;;;;;;;;4149143;28;19921;-88
2023/11/30 01:55:53;;;;;;;;;;;;;;;;;;4131625;28;19926;-88
2023/11/30 01:57:54;;;;;;;;;;;;;;;;;;4149151;28;19922;-88
2023/11/30 01:59:56;;;;;;;;;;;;;;;;;;4149305;28;19921;-87
2023/11/30 02:01:57;;;;;;;;;;;;;;;;;;4173882;28;19925;-85
2023/11/30 02:03:59;;;;;;;;;;;;;;;;;;4183982;22;19956;-60
2023/11/30 02:06:01;;;;;;;;;;;;;;;;;;4153785;28;20285;-60
2023/11/30 02:08:02;;;;;;;;;;;;;;;;;;4150048;28;20016;-60
2023/11/30 02:10:04;;;;;;;;;;;;;;;;;;4165166;28;19974;-61
2023/11/30 02:12:05;;;;;;;;;;;;;;;;;;4165477;28;19921;-60
2023/11/30 02:14:07;;;;;;;;;;;;;;;;;;4165141;28;19924;-61
2023/11/30 02:16:08;;;;;;;;;;;;;;;;;;4159116;28;19933;-61
2023/11/30 02:18:10;;;;;;;;;;;;;;;;;;4148851;28;19944;-61
2023/11/30 02:20:12;;;;;;;;;;;;;;;;;;4148859;28;19931;-61
2023/11/30 02:22:13;;;;;;;;;;;;;;;;;;4148940;28;19925;-61
2023/11/30 02:24:14;;;;;;;;;;;;;;;;;;4148232;28;19933;-61
2023/11/30 02:26:16;;;;;;;;;;;;;;;;;;4136280;28;19921;-61
2023/11/30 02:28:17;;;;;;;;;;;;;;;;;;4163676;28;20342;-61
2023/11/30 02:30:19;;;;;;;;;;;;;;;;;;4163515;28;19963;-61
2023/11/30 02:32:21;;;;;;;;;;;;;;;;;;4163430;28;19921;-62
2023/11/30 02:34:22;;;;;;;;;;;;;;;;;;4163781;28;19928;-61
2023/11/30 02:36:23;;;;;;;;;;;;;;;;;;4163513;28;19924;-61
2023/11/30 02:38:25;;;;;;;;;;;;;;;;;;4163181;28;19921;-61
2023/11/30 02:40:26;;;;;;;;;;;;;;;;;;4163146;28;20427;-61
2023/11/30 02:42:28;;;;;;;;;;;;;;;;;;4163250;28;19967;-61
2023/11/30 02:44:30;;;;;;;;;;;;;;;;;;4163835;28;19929;-60
2023/11/30 02:46:31;;;;;;;;;;;;;;;;;;4164800;28;19932;-61
2023/11/30 02:48:32;;;;;;;;;;;;;;;;;;4150388;28;19929;-60
2023/11/30 02:50:34;;;;;;;;;;;;;;;;;;4148245;28;20436;-61
2023/11/30 02:52:35;;;;;;;;;;;;;;;;;;4148568;28;20374;-61
2023/11/30 02:54:37;;;;;;;;;;;;;;;;;;4148589;28;19964;-60
2023/11/30 02:56:39;;;;;;;;;;;;;;;;;;4148196;28;19921;-61
2023/11/30 02:58:40;;;;;;;;;;;;;;;;;;4148307;28;19928;-60
2023/11/30 03:00:43;;;;;;;;;;;;;;;;;;4150519;28;19922;-61
2023/11/30 03:02:44;;;;;;;;;;;;;;;;;;4149485;28;19925;-61
2023/11/30 03:04:46;;;;;;;;;;;;;;;;;;4161956;28;19975;-61
2023/11/30 03:06:47;;;;;;;;;;;;;;;;;;4164720;28;19925;-60
2023/11/30 03:08:48;;;;;;;;;;;;;;;;;;4164260;28;19921;-60
2023/11/30 03:10:50;;;;;;;;;;;;;;;;;;4164698;28;19921;-60
2023/11/30 03:12:52;;;;;;;;;;;;;;;;;;4147166;28;19922;-60
2023/11/30 03:14:53;;;;;;;;;;;;;;;;;;4164514;28;19921;-61
2023/11/30 03:16:55;;;;;;;;;;;;;;;;;;4164486;28;19921;-61
2023/11/30 03:18:56;;;;;;;;;;;;;;;;;;4164420;28;19960;-60
2023/11/30 03:21:10;;;;;;;;;;;;;;;;;;4148957;28;19936;-61
2023/11/30 03:23:12;;;;;;;;;;;;;;;;;;4148001;28;19928;-61
2023/11/30 03:25:13;;;;;;;;;;;;;;;;;;4147923;28;19921;-61
2023/11/30 03:27:15;;;;;;;;;;;;;;;;;;4148251;28;19921;-60
2023/11/30 03:29:16;;;;;;;;;;;;;;;;;;4147933;28;20259;-60
2023/11/30 03:31:18;;;;;;;;;;;;;;;;;;4148145;28;19922;-60
2023/11/30 03:33:19;;;;;;;;;;;;;;;;;;4148303;28;19933;-61
2023/11/30 03:35:21;;;;;;;;;;;;;;;;;;4148157;28;20380;-61
2023/11/30 03:37:22;;;;;;;;;;;;;;;;;;4150108;28;19965;-61
2023/11/30 03:39:24;;;;;;;;;;;;;;;;;;4151166;28;19936;-61
2023/11/30 03:41:25;;;;;;;;;;;;;;;;;;4151101;28;19922;-61
2023/11/30 03:43:27;;;;;;;;;;;;;;;;;;4150909;28;19944;-61
2023/11/30 03:45:28;;;;;;;;;;;;;;;;;;4151366;28;19921;-61
2023/11/30 03:47:31;;;;;;;;;;;;;;;;;;4151039;28;19925;-61
2023/11/30 03:49:33;;;;;;;;;;;;;;;;;;4150996;28;19932;-61
2023/11/30 03:51:34;;;;;;;;;;;;;;;;;;4151001;28;19921;-61
2023/11/30 03:53:36;;;;;;;;;;;;;;;;;;4151245;28;19925;-61
2023/11/30 03:55:37;;;;;;;;;;;;;;;;;;4151148;28;19967;-61
2023/11/30 03:57:39;;;;;;;;;;;;;;;;;;4150797;28;19925;-61
2023/11/30 03:59:40;;;;;;;;;;;;;;;;;;4151253;28;19925;-61
2023/11/30 04:01:42;;;;;;;;;;;;;;;;;;4161178;28;20399;-61
2023/11/30 04:03:43;;;;;;;;;;;;;;;;;;4162119;28;19921;-61
2023/11/30 04:05:45;;;;;;;;;;;;;;;;;;4150777;28;19931;-61
2023/11/30 04:07:47;;;;;;;;;;;;;;;;;;4151112;28;19929;-61
2023/11/30 04:09:49;;;;;;;;;;;;;;;;;;4166357;28;19921;-61
2023/11/30 04:11:50;;;;;;;;;;;;;;;;;;4167360;28;19948;-61
2023/11/30 04:13:52;;;;;;;;;;;;;;;;;;4167054;28;20011;-61
2023/11/30 04:15:53;;;;;;;;;;;;;;;;;;4149363;28;19976;-61
2023/11/30 04:17:55;;;;;;;;;;;;;;;;;;4154957;28;19976;-61
2023/11/30 04:19:57;;;;;;;;;;;;;;;;;;4150613;28;19975;-61
2023/11/30 04:21:58;;;;;;;;;;;;;;;;;;4150828;28;19921;-61
2023/11/30 04:24:00;;;;;;;;;;;;;;;;;;4150496;28;19968;-61
2023/11/30 04:26:01;;;;;;;;;;;;;;;;;;4150911;28;20134;-61
2023/11/30 04:28:03;;;;;;;;;;;;;;;;;;4150497;28;20309;-61
2023/11/30 04:30:04;;;;;;;;;;;;;;;;;;4150303;28;19921;-61
2023/11/30 04:32:06;;;;;;;;;;;;;;;;;;4150572;28;20392;-62
2023/11/30 04:34:08;;;;;;;;;;;;;;;;;;4132952;28;19921;-61
2023/11/30 04:36:10;;;;;;;;;;;;;;;;;;4150289;28;19925;-61
2023/11/30 04:38:11;;;;;;;;;;;;;;;;;;4150255;28;19928;-61
2023/11/30 04:40:13;;;;;;;;;;;;;;;;;;4150096;28;19921;-62
2023/11/30 04:42:14;;;;;;;;;;;;;;;;;;4150211;28;19925;-61
2023/11/30 04:44:16;;;;;;;;;;;;;;;;;;4150251;28;19968;-61
2023/11/30 04:46:20;;;;;;;;;;;;;;;;;;4150144;28;19921;-61
2023/11/30 04:48:22;;;;;;;;;;;;;;;;;;4149808;28;20016;-61
2023/11/30 04:50:23;;;;;;;;;;;;;;;;;;4150182;28;19921;-61
2023/11/30 04:52:25;;;;;;;;;;;;;;;;;;4150368;28;19928;-61
2023/11/30 04:54:26;;;;;;;;;;;;;;;;;;4149882;28;19922;-61
2023/11/30 04:56:27;;;;;;;;;;;;;;;;;;4154564;28;20360;-61
2023/11/30 04:58:29;;;;;;;;;;;;;;;;;;4166625;28;19921;-61
2023/11/30 05:00:30;;;;;;;;;;;;;;;;;;4148475;28;20360;-61
2023/11/30 05:02:32;;;;;;;;;;;;;;;;;;4165978;28;19929;-61
2023/11/30 05:04:33;;;;;;;;;;;;;;;;;;4165221;28;20367;-60
2023/11/30 05:06:35;;;;;;;;;;;;;;;;;;4155852;28;20020;-61
2023/11/30 05:08:36;;;;;;;;;;;;;;;;;;4157622;28;20335;-61
2023/11/30 05:10:38;;;;;;;;;;;;;;;;;;4146151;28;19925;-61
2023/11/30 05:12:39;;;;;;;;;;;;;;;;;;4133721;28;19922;-61
2023/11/30 05:14:41;;;;;;;;;;;;;;;;;;4133586;28;19925;-61
2023/11/30 05:16:43;;;;;;;;;;;;;;;;;;4147947;28;19928;-61
2023/11/30 05:18:44;;;;;;;;;;;;;;;;;;4158025;28;19922;-61
2023/11/30 05:20:46;;;;;;;;;;;;;;;;;;4148795;28;20305;-61
2023/11/30 05:22:47;;;;;;;;;;;;;;;;;;4149840;28;19932;-61
2023/11/30 05:24:51;;;;;;;;;;;;;;;;;;4149742;28;19960;-60
2023/11/30 05:26:53;;;;;;;;;;;;;;;;;;4149838;28;19964;-61
2023/11/30 05:28:54;;;;;;;;;;;;;;;;;;4149648;28;19921;-62
2023/11/30 05:30:56;;;;;;;;;;;;;;;;;;4149634;28;20365;-61
2023/11/30 05:32:57;;;;;;;;;;;;;;;;;;4149494;28;19925;-61
2023/11/30 05:34:59;;;;;;;;;;;;;;;;;;4149548;28;19921;-61
2023/11/30 05:37:01;;;;;;;;;;;;;;;;;;4149284;28;19983;-61
2023/11/30 05:39:03;;;;;;;;;;;;;;;;;;4149771;28;19921;-61
2023/11/30 05:41:05;;;;;;;;;;;;;;;;;;4149535;28;19996;-61
2023/11/30 05:43:07;;;;;;;;;;;;;;;;;;4149340;28;19925;-61
2023/11/30 05:45:08;;;;;;;;;;;;;;;;;;4149447;28;19925;-61
2023/11/30 05:47:10;;;;;;;;;;;;;;;;;;4149475;28;20285;-61
2023/11/30 05:49:11;;;;;;;;;;;;;;;;;;4149215;28;20305;-62
2023/11/30 05:51:13;;;;;;;;;;;;;;;;;;4148894;28;19922;-62
2023/11/30 05:53:15;;;;;;;;;;;;;;;;;;4149227;28;19926;-61
2023/11/30 05:55:16;;;;;;;;;;;;;;;;;;4149042;28;19921;-61
2023/11/30 05:57:18;;;;;;;;;;;;;;;;;;4149383;28;19925;-61
2023/11/30 05:59:19;;;;;;;;;;;;;;;;;;4148552;28;19971;-62
2023/11/30 06:01:21;;;;;;;;;;;;;;;;;;4156405;28;19921;-62
2023/11/30 06:03:22;;;;;;;;;;;;;;;;;;4163058;28;19925;-61
2023/11/30 06:05:24;;;;;;;;;;;;;;;;;;4147839;28;19929;-61
2023/11/30 06:07:25;;;;;;;;;;;;;;;;;;4148879;28;20004;-61
2023/11/30 06:09:27;;;;;;;;;;;;;;;;;;4154628;28;19929;-62
2023/11/30 06:11:28;;;;;;;;;;;;;;;;;;4148677;28;20016;-61
2023/11/30 06:13:30;;;;;;;;;;;;;;;;;;4146462;28;19925;-65
2023/11/30 06:15:31;;;;;;;;;;;;;;;;;;4148828;28;20333;-65
2023/11/30 06:17:33;;;;;;;;;;;;;;;;;;4148696;28;19975;-66
2023/11/30 06:19:34;;;;;;;;;;;;;;;;;;4153860;28;20012;-65
2023/11/30 06:21:36;;;;;;;;;;;;;;;;;;4148645;28;19921;-65
2023/11/30 06:23:37;;;;;;;;;;;;;;;;;;4149086;28;19952;-65
2023/11/30 06:25:39;;;;;;;;;;;;;;;;;;4148834;28;20004;-65
2023/11/30 06:27:40;;;;;;;;;;;;;;;;;;4149440;28;19921;-67
2023/11/30 06:29:42;;;;;;;;;;;;;;;;;;4148462;28;19921;-67
2023/11/30 06:31:43;;;;;;;;;;;;;;;;;;4148612;28;19922;-67
2023/11/30 06:33:45;;;;;;;;;;;;;;;;;;4147046;28;19980;-67
2023/11/30 06:35:46;;;;;;;;;;;;;;;;;;4148373;28;20317;-66
2023/11/30 06:37:48;;;;;;;;;;;;;;;;;;4148706;28;19991;-67
2023/11/30 06:39:49;;;;;;;;;;;;;;;;;;4148413;28;19933;-66
2023/11/30 06:41:51;;;;;;;;;;;;;;;;;;4148551;28;20137;-67
2023/11/30 06:43:54;;;;;;;;;;;;;;;;;;4148598;28;19972;-67
2023/11/30 06:45:55;;;;;;;;;;;;;;;;;;4148775;28;19984;-67
2023/11/30 06:47:57;;;;;;;;;;;;;;;;;;4148548;28;19972;-67
2023/11/30 06:49:58;;;;;;;;;;;;;;;;;;4148447;28;19967;-66
2023/11/30 06:52:00;;;;;;;;;;;;;;;;;;4131043;28;20214;-66
2023/11/30 06:54:04;;;;;;;;;;;;;;;;;;4148265;28;19921;-67
2023/11/30 06:56:06;;;;;;;;;;;;;;;;;;4130791;28;19928;-66
2023/11/30 06:58:07;;;;;;;;;;;;;;;;;;4148237;28;19928;-66
2023/11/30 07:00:10;;;;;;;;;;;;;;;;;;4148178;28;19944;-66
2023/11/30 07:02:12;;;;;;;;;;;;;;;;;;4162047;28;19925;-66
2023/11/30 07:04:14;;;;;;;;;;;;;;;;;;4164231;28;19920;-67
2023/11/30 07:06:15;;;;;;;;;;;;;;;;;;4164697;28;19935;-67
2023/11/30 07:08:17;;;;;;;;;;;;;;;;;;4162114;28;19979;-67
2023/11/30 07:10:18;;;;;;;;;;;;;;;;;;4147854;28;19928;-66
2023/11/30 07:12:20;;;;;;;;;;;;;;;;;;4148282;28;19925;-67
2023/11/30 07:14:21;;;;;;;;;;;;;;;;;;4130335;28;19984;-66
2023/11/30 07:16:23;;;;;;;;;;;;;;;;;;4147943;28;19921;-66
2023/11/30 07:18:24;;;;;;;;;;;;;;;;;;4147954;28;19921;-66
2023/11/30 07:20:26;;;;;;;;;;;;;;;;;;4147872;28;20289;-66
2023/11/30 07:22:51;;;;;;;;;;;;;;;;;;4148209;28;20456;-67
2023/11/30 07:24:52;;;;;;;;;;;;;;;;;;4130852;28;19921;-66
2023/11/30 07:26:54;;;;;;;;;;;;;;;;;;4148027;28;19972;-67
2023/11/30 07:28:55;;;;;;;;;;;;;;;;;;4148097;28;19929;-67
2023/11/30 07:30:57;;;;;;;;;;;;;;;;;;4147809;28;19992;-66
2023/11/30 07:32:59;;;;;;;;;;;;;;;;;;4148277;28;19926;-66
2023/11/30 07:35:01;;;;;;;;;;;;;;;;;;4148163;28;19926;-66
2023/11/30 07:37:02;;;;;;;;;;;;;;;;;;4148043;28;19930;-67
2023/11/30 07:39:04;;;;;;;;;;;;;;;;;;4147939;28;19980;-66
2023/11/30 07:41:06;;;;;;;;;;;;;;;;;;4147857;28;19922;-66
2023/11/30 07:43:07;;;;;;;;;;;;;;;;;;4139158;28;20290;-66
2023/11/30 07:45:10;;;;;;;;;;;;;;;;;;4130396;28;20016;-66
2023/11/30 07:47:11;;;;;;;;;;;;;;;;;;4147756;28;20305;-66
2023/11/30 07:49:13;;;;;;;;;;;;;;;;;;4147877;28;20313;-67
2023/11/30 07:51:14;;;;;;;;;;;;;;;;;;4147956;28;19925;-66
2023/11/30 07:53:16;;;;;;;;;;;;;;;;;;4147877;28;19979;-66
2023/11/30 07:55:17;;;;;;;;;;;;;;;;;;4147968;28;19932;-66
2023/11/30 07:57:19;;;;;;;;;;;;;;;;;;4148037;28;19925;-66
2023/11/30 07:59:20;;;;;;;;;;;;;;;;;;4148092;28;19925;-66
2023/11/30 08:01:22;;;;;;;;;;;;;;;;;;4155525;28;19929;-66
2023/11/30 08:03:24;;;;;;;;;;;;;;;;;;4163804;28;20459;-65
2023/11/30 08:05:25;;;;;;;;;;;;;;;;;;4154510;28;19922;-66
2023/11/30 08:07:27;;;;;;;;;;;;;;;;;;4148042;28;20451;-66
2023/11/30 08:09:28;;;;;;;;;;;;;;;;;;4160800;28;19921;-65
2023/11/30 08:11:30;;;;;;;;;;;;;;;;;;4164001;28;19925;-66
2023/11/30 08:13:33;;;;;;;;;;;;;;;;;;4164165;28;20219;-66
2023/11/30 08:15:34;;;;;;;;;;;;;;;;;;4164025;28;20426;-66
2023/11/30 08:17:36;;;;;;;;;;;;;;;;;;4164131;28;20095;-67
2023/11/30 08:19:38;;;;;;;;;;;;;;;;;;4163882;28;19921;-66
2023/11/30 08:21:40;;;;;;;;;;;;;;;;;;4164100;28;19971;-66
2023/11/30 08:23:42;;;;;;;;;;;;;;;;;;4166590;28;20015;-67
2023/11/30 08:25:43;;;;;;;;;;;;;;;;;;4155596;28;20288;-66
2023/11/30 08:27:45;;;;;;;;;;;;;;;;;;4150725;28;19925;-65
2023/11/30 08:29:51;;;;;;;;;;;;;;;;;;4150827;28;20424;-66
2023/11/30 08:31:52;;;;;;;;;;;;;;;;;;4150651;28;20436;-66
2023/11/30 08:33:55;;;;;;;;;;;;;;;;;;4150506;28;20282;-67
2023/11/30 08:35:56;;;;;;;;;;;;;;;;;;4150582;28;19921;-66
2023/11/30 08:37:58;;;;;;;;;;;;;;;;;;4150353;28;20424;-66
2023/11/30 08:39:59;;;;;;;;;;;;;;;;;;4150362;28;19926;-67
2023/11/30 08:42:01;;;;;;;;;;;;;;;;;;4150389;28;19921;-67
2023/11/30 08:44:03;;;;;;;;;;;;;;;;;;4150533;28;19930;-67
2023/11/30 08:46:05;;;;;;;;;;;;;;;;;;4150440;28;20336;-66
2023/11/30 08:48:06;;;;;;;;;;;;;;;;;;4150434;28;19928;-66
2023/11/30 08:50:08;;;;;;;;;;;;;;;;;;4150071;28;19929;-66
2023/11/30 08:52:09;;;;;;;;;;;;;;;;;;4150331;28;19928;-66
2023/11/30 08:54:11;;;;;;;;;;;;;;;;;;4150068;28;19921;-66
2023/11/30 08:56:12;;;;;;;;;;;;;;;;;;4150102;28;19925;-66
2023/11/30 08:58:14;;;;;;;;;;;;;;;;;;4150317;28;19921;-66
2023/11/30 09:00:15;;;;;;;;;;;;;;;;;;4149765;28;19921;-66
2023/11/30 09:02:21;;;;;;;;;;;;;;;;;;4150988;28;19928;-67
2023/11/30 09:04:22;;;;;;;;;;;;;;;;;;4149707;28;19929;-66
2023/11/30 09:06:24;;;;;;;;;;;;;;;;;;4150066;28;20457;-67
2023/11/30 09:08:25;;;;;;;;;;;;;;;;;;4154070;28;20297;-67
2023/11/30 09:10:27;;;;;;;;;;;;;;;;;;4166001;28;19921;-67
2023/11/30 09:12:28;;;;;;;;;;;;;;;;;;4166160;28;19947;-67
2023/11/30 09:14:30;;;;;;;;;;;;;;;;;;4166068;28;19925;-67
2023/11/30 09:16:31;;;;;;;;;;;;;;;;;;4166283;28;19975;-67
2023/11/30 09:18:33;;;;;;;;;;;;;;;;;;4166273;28;20016;-67
2023/11/30 09:20:34;;;;;;;;;;;;;;;;;;4166067;28;19928;-67
2023/11/30 09:22:36;;;;;;;;;;;;;;;;;;4133363;28;20341;-67
2023/11/30 09:24:38;;;;;;;;;;;;;;;;;;4133377;28;19926;-67
2023/11/30 09:26:39;;;;;;;;;;;;;;;;;;4133643;28;19922;-67
2023/11/30 09:28:44;;;;;;;;;;;;;;;;;;4133551;28;19922;-67
2023/11/30 09:30:45;;;;;;;;;;;;;;;;;;4133365;28;19926;-67
2023/11/30 09:32:47;;;;;;;;;;;;;;;;;;4133587;28;19928;-67
2023/11/30 09:34:48;;;;;;;;;;;;;;;;;;4133081;28;19969;-67
2023/11/30 09:36:50;;;;;;;;;;;;;;;;;;4149596;28;20284;-67
2023/11/30 09:38:51;;;;;;;;;;;;;;;;;;4131927;28;19977;-67
2023/11/30 09:40:53;;;;;;;;;;;;;;;;;;4149468;28;19976;-67
2023/11/30 09:42:54;;;;;;;;;;;;;;;;;;4149607;28;19975;-67
2023/11/30 09:44:56;;;;;;;;;;;;;;;;;;4149490;28;19928;-67
2023/11/30 09:46:57;;;;;;;;;;;;;;;;;;4149533;28;19929;-67
2023/11/30 09:48:59;;;;;;;;;;;;;;;;;;4149480;28;19921;-67
2023/11/30 09:51:02;;;;;;;;;;;;;;;;;;4149206;28;19944;-67
2023/11/30 09:53:03;;;;;;;;;;;;;;;;;;4149258;28;19925;-67
2023/11/30 09:55:05;;;;;;;;;;;;;;;;;;4149332;28;20369;-67
2023/11/30 09:57:07;;;;;;;;;;;;;;;;;;4149004;28;19940;-67
2023/11/30 09:59:08;;;;;;;;;;;;;;;;;;4149090;28;19964;-67
2023/11/30 10:01:10;;;;;;;;;;;;;;;;;;4155005;28;19925;-67
2023/11/30 10:03:12;;;;;;;;;;;;;;;;;;4165338;28;19921;-67
2023/11/30 10:05:14;;;;;;;;;;;;;;;;;;4165342;28;19924;-67
2023/11/30 10:07:15;;;;;;;;;;;;;;;;;;4165453;28;19921;-67
2023/11/30 10:09:17;;;;;;;;;;;;;;;;;;4165186;28;19971;-67
2023/11/30 10:11:19;;;;;;;;;;;;;;;;;;4165196;28;19960;-67
2023/11/30 10:13:21;;;;;;;;;;;;;;;;;;4165150;28;20282;-67
2023/11/30 10:15:22;;;;;;;;;;;;;;;;;;4165234;28;19925;-66
2023/11/30 10:17:24;;;;;;;;;;;;;;;;;;4160328;28;19971;-66
2023/11/30 10:19:26;;;;;;;;;;;;;;;;;;4148885;28;19937;-67
2023/11/30 10:21:28;;;;;;;;;;;;;;;;;;4148886;28;20404;-67
2023/11/30 10:23:30;;;;;;;;;;;;;;;;;;4148582;28;20660;-67
2023/11/30 10:25:31;;;;;;;;;;;;;;;;;;4148986;28;20434;-67
2023/11/30 10:27:33;;;;;;;;;;;;;;;;;;4149115;28;19925;-68
2023/11/30 10:29:37;;;;;;;;;;;;;;;;;;4131143;28;19925;-67
2023/11/30 10:31:39;;;;;;;;;;;;;;;;;;4148702;28;20373;-67
2023/11/30 10:33:40;;;;;;;;;;;;;;;;;;4147825;28;19925;-67
2023/11/30 10:35:42;;;;;;;;;;;;;;;;;;4148649;28;19933;-67
2023/11/30 10:37:43;;;;;;;;;;;;;;;;;;4148268;28;19926;-67
2023/11/30 10:39:45;;;;;;;;;;;;;;;;;;4147600;28;19987;-67
2023/11/30 10:41:47;;;;;;;;;;;;;;;;;;4148478;28;19961;-67
2023/11/30 10:43:49;;;;;;;;;;;;;;;;;;4148301;28;19921;-67
2023/11/30 10:45:50;;;;;;;;;;;;;;;;;;4147692;28;19944;-67
2023/11/30 10:47:52;;;;;;;;;;;;;;;;;;4149901;28;19971;-67
2023/11/30 10:49:53;;;;;;;;;;;;;;;;;;4131156;28;19976;-67
2023/11/30 10:51:55;;;;;;;;;;;;;;;;;;4148425;28;20373;-67
2023/11/30 10:53:58;;;;;;;;;;;;;;;;;;4148217;28;19921;-67
2023/11/30 10:56:00;;;;;;;;;;;;;;;;;;4147887;28;20401;-67
2023/11/30 10:58:02;;;;;;;;;;;;;;;;;;4148630;28;19968;-66
2023/11/30 11:00:05;;;;;;;;;;;;;;;;;;4130412;28;19922;-66
2023/11/30 11:02:09;;;;;;;;;;;;;;;;;;4135951;28;19932;-67
2023/11/30 11:04:11;;;;;;;;;;;;;;;;;;4154619;28;19921;-67
2023/11/30 11:06:15;;;;;;;;;;;;;;;;;;4148111;28;20737;-66
2023/11/30 11:08:17;;;;;;;;;;;;;;;;;;4151440;28;19927;-67
2023/11/30 11:10:18;;;;;;;;;;;;;;;;;;4148452;28;19921;-67
2023/11/30 11:12:20;;;;;;;;;;;;;;;;;;4147997;28;19921;-67
2023/11/30 11:14:21;;;;;;;;;;;;;;;;;;4147900;28;19928;-67
2023/11/30 11:16:23;;;;;;;;;;;;;;;;;;4147027;28;19922;-67
2023/11/30 11:18:24;;;;;;;;;;;;;;;;;;4148289;28;19976;-67
2023/11/30 11:20:26;;;;;;;;;;;;;;;;;;4148021;28;19975;-67
2023/11/30 11:22:30;;;;;;;;;;;;;;;;;;4147087;28;19927;-67
2023/11/30 11:24:32;;;;;;;;;;;;;;;;;;4148095;28;19928;-66
2023/11/30 11:26:33;;;;;;;;;;;;;;;;;;4147995;28;19925;-67
2023/11/30 11:28:35;;;;;;;;;;;;;;;;;;4146272;28;19936;-67
2023/11/30 11:30:37;;;;;;;;;;;;;;;;;;4129918;28;19922;-67
2023/11/30 11:32:40;;;;;;;;;;;;;;;;;;4147351;28;19929;-67
2023/11/30 11:34:41;;;;;;;;;;;;;;;;;;4147499;28;20384;-67
2023/11/30 11:36:43;;;;;;;;;;;;;;;;;;4147683;28;20340;-67
2023/11/30 11:38:44;;;;;;;;;;;;;;;;;;4147755;28;19925;-67
2023/11/30 11:40:46;;;;;;;;;;;;;;;;;;4148149;28;19922;-67
2023/11/30 11:42:47;;;;;;;;;;;;;;;;;;4147645;28;20462;-67
2023/11/30 11:44:52;;;;;;;;;;;;;;;;;;4148028;28;20312;-67
2023/11/30 11:46:53;;;;;;;;;;;;;;;;;;4148163;28;20365;-67
2023/11/30 11:48:55;;;;;;;;;;;;;;;;;;4146993;28;19925;-67
2023/11/30 11:50:56;;;;;;;;;;;;;;;;;;4147786;28;19921;-67
2023/11/30 11:52:58;;;;;;;;;;;;;;;;;;4147483;28;19921;-66
2023/11/30 11:54:59;;;;;;;;;;;;;;;;;;4147963;28;19952;-67
2023/11/30 11:57:01;;;;;;;;;;;;;;;;;;4153278;28;19921;-67
2023/11/30 11:59:02;;;;;;;;;;;;;;;;;;4147420;28;19952;-67
2023/11/30 12:01:04;;;;;;;;;;;;;;;;;;4155664;28;19929;-67
2023/11/30 12:03:05;;;;;;;;;;;;;;;;;;4166972;28;19956;-68
2023/11/30 12:05:08;;;;;;;;;;;;;;;;;;4163218;28;19921;-67
2023/11/30 12:07:10;;;;;;;;;;;;;;;;;;4149559;28;19972;-67
2023/11/30 12:09:11;;;;;;;;;;;;;;;;;;4157037;28;20411;-67
2023/11/30 12:11:14;;;;;;;;;;;;;;;;;;4158447;28;19935;-67
2023/11/30 12:13:16;;;;;;;;;;;;;;;;;;4155778;28;19974;-66
2023/11/30 12:15:17;;;;;;;;;;;;;;;;;;4150775;28;19921;-67
2023/11/30 12:17:19;;;;;;;;;;;;;;;;;;4150656;28;20421;-67
2023/11/30 12:19:21;;;;;;;;;;;;;;;;;;4152790;28;19971;-67
2023/11/30 12:21:23;;;;;;;;;;;;;;;;;;4159315;28;19925;-67
2023/11/30 12:23:24;;;;;;;;;;;;;;;;;;4150344;28;19980;-67
2023/11/30 12:25:26;;;;;;;;;;;;;;;;;;4152885;28;19925;-67
2023/11/30 12:27:28;;;;;;;;;;;;;;;;;;4161599;28;20197;-67
2023/11/30 12:29:29;;;;;;;;;;;;;;;;;;4150643;28;19921;-67
2023/11/30 12:31:31;;;;;;;;;;;;;;;;;;4150623;28;19921;-67
2023/11/30 12:33:32;;;;;;;;;;;;;;;;;;4150598;28;20441;-67
2023/11/30 12:35:34;;;;;;;;;;;;;;;;;;4150487;28;19925;-67
2023/11/30 12:37:38;;;;;;;;;;;;;;;;;;4153382;28;19921;-67
2023/11/30 12:39:39;;;;;;;;;;;;;;;;;;4149990;28;19953;-67
2023/11/30 12:41:41;;;;;;;;;;;;;;;;;;4149888;28;20036;-67
2023/11/30 12:43:42;;;;;;;;;;;;;;;;;;4150460;28;19976;-67
2023/11/30 12:45:44;;;;;;;;;;;;;;;;;;4153057;28;19944;-67
2023/11/30 12:47:46;;;;;;;;;;;;;;;;;;4134234;28;19932;-66
2023/11/30 12:49:47;;;;;;;;;;;;;;;;;;4134106;28;20424;-67
2023/11/30 12:51:49;;;;;;;;;;;;;;;;;;4147336;28;19968;-67
2023/11/30 12:53:52;;;;;;;;;;;;;;;;;;4150120;28;19925;-67
2023/11/30 12:55:53;;;;;;;;;;;;;;;;;;4149906;28;19937;-68
2023/11/30 12:57:55;;;;;;;;;;;;;;;;;;4150285;28;19968;-67
2023/11/30 12:59:57;;;;;;;;;;;;;;;;;;4149952;28;20009;-67
2023/11/30 13:01:58;;;;;;;;;;;;;;;;;;4162567;28;19925;-67
2023/11/30 13:04:00;;;;;;;;;;;;;;;;;;4166057;28;20020;-68
2023/11/30 13:06:02;;;;;;;;;;;;;;;;;;4162760;28;20294;-67
2023/11/30 13:08:03;;;;;;;;;;;;;;;;;;4150879;28;20378;-67
2023/11/30 13:10:05;;;;;;;;;;;;;;;;;;4166075;28;19975;-67
2023/11/30 13:12:06;;;;;;;;;;;;;;;;;;4166004;28;19971;-67
2023/11/30 13:14:08;;;;;;;;;;;;;;;;;;4164642;28;19964;-67
2023/11/30 13:16:09;;;;;;;;;;;;;;;;;;4148507;28;19922;-67
2023/11/30 13:18:11;;;;;;;;;;;;;;;;;;4149255;28;19926;-67
2023/11/30 13:20:13;;;;;;;;;;;;;;;;;;4149223;28;20321;-67
2023/11/30 13:22:15;;;;;;;;;;;;;;;;;;4149758;28;20024;-67
2023/11/30 13:24:17;;;;;;;;;;;;;;;;;;4149561;28;19995;-67
2023/11/30 13:26:18;;;;;;;;;;;;;;;;;;4149521;28;20291;-67
2023/11/30 13:28:20;;;;;;;;;;;;;;;;;;4149522;28;20017;-67
2023/11/30 13:30:21;;;;;;;;;;;;;;;;;;4149583;28;19976;-67
2023/11/30 13:32:23;;;;;;;;;;;;;;;;;;4149613;28;20008;-67
2023/11/30 13:34:25;;;;;;;;;;;;;;;;;;4149526;28;19921;-67
2023/11/30 13:36:26;;;;;;;;;;;;;;;;;;4149612;28;20373;-67
2023/11/30 13:38:28;;;;;;;;;;;;;;;;;;4149426;28;19921;-67
2023/11/30 13:40:30;;;;;;;;;;;;;;;;;;4149502;28;19944;-67
2023/11/30 13:42:32;;;;;;;;;;;;;;;;;;4149255;28;19921;-67
2023/11/30 13:44:34;;;;;;;;;;;;;;;;;;4149297;28;19984;-67
2023/11/30 13:46:37;;;;;;;;;;;;;;;;;;4150760;28;19921;-67
2023/11/30 13:48:39;;;;;;;;;;;;;;;;;;4153230;28;19921;-67
2023/11/30 13:50:42;;;;;;;;;;;;;;;;;;4149090;28;19964;-67